Time;durP1;ratioP1;P1;durP2;ratioP2;P2;SDS_P1;SDS_P2;PMS_P1;PMS_P2;Temp;Humidity;BMP_temperature;BMP_pressure;BME280_temperature;BME280_humidity;BME280_pressure;Samples;Min_cycle;Max_cycle;Signal;HPM_P1;HPM_P2
2023/09/10 00:00:27;;;;;;;;;21.00;16.00;;;;;;;;5093730;27;45791;-74
2023/09/10 00:02:53;;;;;;;;;12.67;12.33;;;;;;;;5094391;27;45688;-74
2023/09/10 00:05:18;;;;;;;;;16.33;15.33;;;;;;;;5086843;27;45564;-74
2023/09/10 00:07:43;;;;;;;;;12.00;11.00;;;;;;;;5071969;27;47104;-73
2023/09/10 00:10:09;;;;;;;;;15.33;12.33;;;;;;;;5086123;27;45312;-73
2023/09/10 00:12:34;;;;;;;;;15.67;10.67;;;;;;;;5079588;27;45396;-73
2023/09/10 00:14:59;;;;;;;;;14.33;12.67;;;;;;;;5091629;27;45654;-74
2023/09/10 00:17:24;;;;;;;;;17.67;13.67;;;;;;;;5074819;27;47271;-73
2023/09/10 00:19:50;;;;;;;;;13.00;10.67;;;;;;;;5090936;27;45746;-73
2023/09/10 00:22:15;;;;;;;;;11.33;10.33;;;;;;;;5091955;27;45386;-73
2023/09/10 00:24:40;;;;;;;;;13.33;12.00;;;;;;;;5092655;27;46002;-73
2023/09/10 00:27:05;;;;;;;;;16.33;11.33;;;;;;;;5092174;27;46085;-73
2023/09/10 00:29:31;;;;;;;;;12.33;11.67;;;;;;;;5092644;27;45836;-74
2023/09/10 00:31:56;;;;;;;;;12.33;11.67;;;;;;;;5093327;27;45405;-72
2023/09/10 00:34:21;;;;;;;;;13.67;11.33;;;;;;;;5086653;27;45483;-74
2023/09/10 00:36:46;;;;;;;;;12.67;12.33;;;;;;;;5093260;27;45297;-74
2023/09/10 00:39:12;;;;;;;;;14.00;11.00;;;;;;;;5092044;27;45425;-73
2023/09/10 00:41:37;;;;;;;;;14.00;11.67;;;;;;;;5089748;27;45396;-73
2023/09/10 00:44:02;;;;;;;;;10.33;10.33;;;;;;;;5087933;27;45638;-74
2023/09/10 00:46:28;;;;;;;;;15.67;13.67;;;;;;;;5086122;27;45966;-72
2023/09/10 00:48:53;;;;;;;;;11.67;11.67;;;;;;;;5074305;27;45780;-73
2023/09/10 00:51:19;;;;;;;;;6.33;6.33;;;;;;;;5073091;27;46019;-74
2023/09/10 00:53:44;;;;;;;;;13.67;12.00;;;;;;;;5092914;27;45795;-74
2023/09/10 00:56:11;;;;;;;;;16.33;13.67;;;;;;;;5071874;27;48162;-74
2023/09/10 00:58:36;;;;;;;;;14.00;10.50;;;;;;;;5073605;27;45506;-75
2023/09/10 01:01:02;;;;;;;;;10.00;10.00;;;;;;;;5085236;27;45460;-73
2023/09/10 01:03:29;;;;;;;;;14.00;12.67;;;;;;;;5090417;27;45539;-74
2023/09/10 01:05:54;;;;;;;;;12.00;10.00;;;;;;;;5090167;27;45516;-75
2023/09/10 01:08:19;;;;;;;;;13.67;12.00;;;;;;;;5068051;27;45339;-73
2023/09/10 01:11:03;;;;;;;;;14.00;13.33;;;;;;;;5067574;27;45808;-74
2023/09/10 01:13:28;;;;;;;;;13.67;13.67;;;;;;;;5059652;27;45881;-75
2023/09/10 01:15:59;;;;;;;;;13.33;11.67;;;;;;;;5090066;27;46163;-73
2023/09/10 01:18:31;;;;;;;;;14.67;10.67;;;;;;;;5089242;27;45872;-72
2023/09/10 01:21:06;;;;;;;;;11.00;11.00;;;;;;;;5087296;27;45512;-73
2023/09/10 01:23:50;;;;;;;;;15.33;14.33;;;;;;;;5089886;27;45959;-73
2023/09/10 01:26:15;;;;;;;;;11.00;11.00;;;;;;;;5083681;27;45823;-74
2023/09/10 01:28:40;;;;;;;;;9.00;9.00;;;;;;;;5074876;27;45840;-73
2023/09/10 01:31:05;;;;;;;;;14.33;11.67;;;;;;;;5071160;27;45743;-75
2023/09/10 01:33:37;;;;;;;;;11.67;11.67;;;;;;;;5085592;27;45655;-75
2023/09/10 01:36:08;;;;;;;;;13.33;12.00;;;;;;;;5069252;27;46368;-74
2023/09/10 01:38:40;;;;;;;;;15.33;11.67;;;;;;;;5075142;27;45427;-74
2023/09/10 01:41:08;;;;;;;;;15.33;11.00;;;;;;;;5078791;27;45377;-74
2023/09/10 01:43:34;;;;;;;;;12.00;11.00;;;;;;;;5090395;27;45742;-72
2023/09/10 01:46:00;;;;;;;;;16.33;11.67;;;;;;;;5083624;27;46740;-74
2023/09/10 01:48:26;;;;;;;;;10.67;10.00;;;;;;;;5086159;27;45436;-73
2023/09/10 01:50:52;;;;;;;;;15.00;13.00;;;;;;;;5079451;27;45767;-73
2023/09/10 01:53:18;;;;;;;;;11.00;11.00;;;;;;;;5087246;27;45730;-75
2023/09/10 01:55:44;;;;;;;;;12.00;10.00;;;;;;;;5073006;27;47179;-73
2023/09/10 01:58:12;;;;;;;;;13.33;11.33;;;;;;;;5086542;27;45459;-73
2023/09/10 02:00:38;;;;;;;;;12.00;11.00;;;;;;;;5069181;27;45706;-73
2023/09/10 02:03:03;;;;;;;;;11.00;10.00;;;;;;;;5083461;27;45500;-74
2023/09/10 02:05:28;;;;;;;;;12.00;11.00;;;;;;;;5075215;27;45741;-74
2023/09/10 02:07:53;;;;;;;;;11.33;11.33;;;;;;;;5086067;27;45486;-73
2023/09/10 02:10:19;;;;;;;;;13.00;10.33;;;;;;;;5084472;27;45743;-72
2023/09/10 02:12:44;;;;;;;;;14.00;14.00;;;;;;;;5083620;27;45488;-72
2023/09/10 02:15:11;;;;;;;;;13.33;10.00;;;;;;;;5084331;27;46130;-73
2023/09/10 02:17:36;;;;;;;;;12.67;11.00;;;;;;;;5078147;27;45880;-73
2023/09/10 02:20:01;;;;;;;;;11.33;11.00;;;;;;;;5085983;27;45477;-73
2023/09/10 02:22:27;;;;;;;;;11.67;9.00;;;;;;;;5087403;27;47013;-73
2023/09/10 02:24:52;;;;;;;;;16.67;13.00;;;;;;;;5072794;27;46197;-73
2023/09/10 02:27:17;;;;;;;;;12.33;9.33;;;;;;;;5069419;27;45521;-72
2023/09/10 02:29:42;;;;;;;;;12.00;12.00;;;;;;;;5086674;27;46548;-72
2023/09/10 02:32:08;;;;;;;;;15.00;14.33;;;;;;;;5083912;27;45684;-72
2023/09/10 02:34:33;;;;;;;;;17.00;15.33;;;;;;;;5085670;27;46122;-72
2023/09/10 02:36:59;;;;;;;;;14.67;12.67;;;;;;;;5088628;27;45451;-72
2023/09/10 02:39:25;;;;;;;;;17.33;16.00;;;;;;;;5087823;27;45886;-73
2023/09/10 02:41:50;;;;;;;;;20.00;13.67;;;;;;;;5089192;27;45564;-73
2023/09/10 02:44:15;;;;;;;;;18.00;15.67;;;;;;;;5082097;27;46879;-74
2023/09/10 02:46:41;;;;;;;;;21.33;19.67;;;;;;;;5087076;27;45969;-74
2023/09/10 02:49:06;;;;;;;;;15.00;15.00;;;;;;;;5090619;27;45763;-73
2023/09/10 02:51:31;;;;;;;;;16.67;15.33;;;;;;;;5086797;27;45439;-72
2023/09/10 02:53:56;;;;;;;;;17.00;16.33;;;;;;;;5087310;27;46043;-72
2023/09/10 02:56:22;;;;;;;;;23.00;19.67;;;;;;;;5085187;27;45858;-72
2023/09/10 02:58:47;;;;;;;;;14.67;14.67;;;;;;;;5063732;27;45741;-73
2023/09/10 03:01:12;;;;;;;;;18.33;16.67;;;;;;;;5088204;27;45645;-73
2023/09/10 03:03:37;;;;;;;;;18.33;16.33;;;;;;;;5080921;27;45769;-74
2023/09/10 03:06:09;;;;;;;;;15.33;14.33;;;;;;;;5083597;27;45916;-73
2023/09/10 03:08:35;;;;;;;;;16.00;15.33;;;;;;;;5081622;27;45512;-73
2023/09/10 03:11:02;;;;;;;;;16.33;14.33;;;;;;;;5091112;27;45597;-72
2023/09/10 03:13:27;;;;;;;;;14.67;13.33;;;;;;;;5090161;27;46974;-72
2023/09/10 03:15:52;;;;;;;;;18.67;17.67;;;;;;;;5091329;27;45690;-73
2023/09/10 03:18:17;;;;;;;;;19.00;16.67;;;;;;;;5090946;27;45796;-73
2023/09/10 03:20:43;;;;;;;;;21.67;17.67;;;;;;;;5083966;27;45809;-74
2023/09/10 03:23:08;;;;;;;;;16.33;15.67;;;;;;;;5083958;27;46369;-72
2023/09/10 03:25:38;;;;;;;;;17.00;16.00;;;;;;;;5084704;27;45898;-73
2023/09/10 03:28:03;;;;;;;;;18.67;17.67;;;;;;;;5077859;27;45846;-75
2023/09/10 03:30:28;;;;;;;;;20.67;15.33;;;;;;;;5079303;27;45694;-72
2023/09/10 03:32:54;;;;;;;;;14.00;12.33;;;;;;;;5076990;27;46169;-74
2023/09/10 03:35:19;;;;;;;;;17.00;14.67;;;;;;;;5087517;27;46574;-73
2023/09/10 03:37:44;;;;;;;;;13.33;12.67;;;;;;;;5087231;27;45468;-73
2023/09/10 03:40:10;;;;;;;;;12.67;10.00;;;;;;;;5084324;27;45825;-74
2023/09/10 03:42:35;;;;;;;;;22.00;20.33;;;;;;;;5089281;27;45765;-72
2023/09/10 03:45:01;;;;;;;;;20.00;17.67;;;;;;;;5085372;27;45846;-74
2023/09/10 03:47:29;;;;;;;;;23.00;19.33;;;;;;;;5085778;27;45560;-74
2023/09/10 03:49:55;;;;;;;;;22.33;17.67;;;;;;;;5071807;27;45521;-72
2023/09/10 03:52:20;;;;;;;;;16.33;15.67;;;;;;;;5088783;27;46558;-72
2023/09/10 03:54:46;;;;;;;;;19.33;19.33;;;;;;;;5066333;27;45974;-74
2023/09/10 03:57:11;;;;;;;;;17.67;13.33;;;;;;;;5062659;27;45472;-73
2023/09/10 03:59:36;;;;;;;;;15.67;15.00;;;;;;;;5081959;27;46025;-72
2023/09/10 04:02:01;;;;;;;;;17.00;17.00;;;;;;;;5066605;27;46198;-75
2023/09/10 04:04:27;;;;;;;;;18.67;16.00;;;;;;;;5068156;27;45726;-74
2023/09/10 04:06:53;;;;;;;;;23.00;18.00;;;;;;;;5085578;27;45563;-73
2023/09/10 04:09:18;;;;;;;;;16.67;16.67;;;;;;;;5070235;28;47237;-72
2023/09/10 04:11:43;;;;;;;;;18.33;13.00;;;;;;;;5088931;27;45493;-73
2023/09/10 04:14:08;;;;;;;;;17.33;16.33;;;;;;;;5088232;27;45509;-73
2023/09/10 04:16:34;;;;;;;;;19.67;15.67;;;;;;;;5086639;27;45695;-73
2023/09/10 04:18:59;;;;;;;;;21.33;16.00;;;;;;;;5091606;27;45768;-74
2023/09/10 04:21:24;;;;;;;;;17.33;15.00;;;;;;;;5084185;27;46213;-74
2023/09/10 04:23:49;;;;;;;;;14.67;14.00;;;;;;;;5090692;27;45489;-74
2023/09/10 04:26:15;;;;;;;;;17.33;15.00;;;;;;;;5072783;27;45567;-74
2023/09/10 04:28:40;;;;;;;;;20.00;16.00;;;;;;;;5072246;27;46774;-74
2023/09/10 04:31:08;;;;;;;;;18.67;16.67;;;;;;;;5086359;27;46637;-72
2023/09/10 04:33:33;;;;;;;;;17.67;15.67;;;;;;;;5084344;27;45582;-75
2023/09/10 04:35:58;;;;;;;;;16.67;15.33;;;;;;;;5082884;27;45575;-75
2023/09/10 04:38:24;;;;;;;;;15.33;12.67;;;;;;;;5080132;27;45741;-74
2023/09/10 04:40:49;;;;;;;;;14.33;12.67;;;;;;;;5091256;27;45920;-73
2023/09/10 04:43:14;;;;;;;;;19.33;16.33;;;;;;;;5082493;27;45814;-73
2023/09/10 04:45:40;;;;;;;;;19.33;18.33;;;;;;;;5067726;27;45888;-73
2023/09/10 04:48:05;;;;;;;;;15.67;14.00;;;;;;;;5067804;27;47060;-73
2023/09/10 04:50:30;;;;;;;;;16.33;14.67;;;;;;;;5093172;27;45755;-74
2023/09/10 04:52:56;;;;;;;;;16.33;12.67;;;;;;;;5090833;27;45466;-73
2023/09/10 04:55:21;;;;;;;;;18.67;17.67;;;;;;;;5085014;27;45443;-72
2023/09/10 04:57:48;;;;;;;;;17.33;15.33;;;;;;;;5065092;27;45479;-74
2023/09/10 05:00:13;;;;;;;;;13.00;10.33;;;;;;;;5067693;27;46877;-73
2023/09/10 05:02:38;;;;;;;;;17.33;16.00;;;;;;;;5083125;27;45915;-74
2023/09/10 05:05:04;;;;;;;;;21.33;17.67;;;;;;;;5079703;27;45921;-74
2023/09/10 05:07:29;;;;;;;;;17.00;15.33;;;;;;;;5065124;27;46764;-76
2023/09/10 05:09:57;;;;;;;;;20.00;19.33;;;;;;;;5076805;27;46477;-76
2023/09/10 05:12:23;;;;;;;;;19.00;16.33;;;;;;;;5079533;27;46068;-75
2023/09/10 05:14:48;;;;;;;;;17.00;15.33;;;;;;;;5079433;27;45900;-76
2023/09/10 05:17:13;;;;;;;;;16.67;16.67;;;;;;;;5082561;27;45969;-78
2023/09/10 05:19:38;;;;;;;;;17.00;13.33;;;;;;;;5078910;27;45794;-78
2023/09/10 05:22:06;;;;;;;;;16.33;15.67;;;;;;;;5064791;27;45616;-78
2023/09/10 05:24:32;;;;;;;;;15.67;14.67;;;;;;;;5085195;27;45851;-76
2023/09/10 05:26:57;;;;;;;;;19.33;17.00;;;;;;;;5078615;27;45897;-74
2023/09/10 05:29:22;;;;;;;;;17.00;14.00;;;;;;;;5083518;27;45701;-76
2023/09/10 05:31:48;;;;;;;;;16.33;14.67;;;;;;;;5062222;27;45903;-75
2023/09/10 05:34:13;;;;;;;;;20.33;17.33;;;;;;;;5080925;27;45774;-74
2023/09/10 05:36:39;;;;;;;;;16.33;14.67;;;;;;;;5077535;27;45576;-72
2023/09/10 05:39:04;;;;;;;;;16.00;15.33;;;;;;;;5081537;27;46005;-72
2023/09/10 05:41:29;;;;;;;;;17.00;13.00;;;;;;;;5078746;27;46268;-73
2023/09/10 05:43:55;;;;;;;;;12.00;12.00;;;;;;;;5084580;27;45826;-71
2023/09/10 05:46:20;;;;;;;;;9.67;9.67;;;;;;;;5078073;27;45592;-73
2023/09/10 05:48:45;;;;;;;;;15.33;14.00;;;;;;;;5077345;27;46538;-72
2023/09/10 05:51:10;;;;;;;;;19.67;14.67;;;;;;;;5080383;27;45806;-71
2023/09/10 05:53:35;;;;;;;;;14.33;14.33;;;;;;;;5076505;27;46385;-72
2023/09/10 05:56:04;;;;;;;;;16.33;13.67;;;;;;;;5077209;27;46028;-73
2023/09/10 05:58:29;;;;;;;;;29.67;27.67;;;;;;;;5080404;27;46088;-72
2023/09/10 06:00:54;;;;;;;;;16.00;15.00;;;;;;;;5078783;27;45497;-72
2023/09/10 06:03:20;;;;;;;;;16.33;15.33;;;;;;;;5075994;27;47229;-74
2023/09/10 06:05:45;;;;;;;;;25.00;21.67;;;;;;;;5075287;27;45638;-74
2023/09/10 06:08:10;;;;;;;;;16.33;15.00;;;;;;;;5075320;27;45858;-73
2023/09/10 06:10:36;;;;;;;;;12.67;11.33;;;;;;;;5080676;27;45598;-73
2023/09/10 06:13:02;;;;;;;;;15.33;13.67;;;;;;;;5083392;27;45842;-73
2023/09/10 06:15:28;;;;;;;;;14.00;11.67;;;;;;;;5066101;27;45768;-72
2023/09/10 06:17:53;;;;;;;;;15.00;15.00;;;;;;;;5078823;27;45779;-73
2023/09/10 06:20:18;;;;;;;;;12.67;11.67;;;;;;;;5076861;27;45826;-73
2023/09/10 06:22:43;;;;;;;;;29.67;27.00;;;;;;;;5064089;27;46726;-73
2023/09/10 06:25:09;;;;;;;;;17.33;13.00;;;;;;;;5079739;27;45857;-72
2023/09/10 06:27:34;;;;;;;;;18.00;17.00;;;;;;;;5076727;27;46026;-78
2023/09/10 06:30:05;;;;;;;;;17.00;17.00;;;;;;;;5083745;27;45770;-80
2023/09/10 06:32:32;;;;;;;;;13.33;13.33;;;;;;;;5065328;27;45841;-81
2023/09/10 06:35:02;;;;;;;;;12.33;12.33;;;;;;;;5092690;27;45592;-80
2023/09/10 06:37:28;;;;;;;;;11.00;11.00;;;;;;;;5084436;27;46292;-79
2023/09/10 06:39:53;;;;;;;;;13.75;12.50;;;;;;;;5086233;27;45447;-80
2023/09/10 06:42:18;;;;;;;;;13.33;13.33;;;;;;;;5085676;27;45803;-81
2023/09/10 06:44:49;;;;;;;;;13.67;13.67;;;;;;;;5071967;27;46470;-80
2023/09/10 06:47:16;;;;;;;;;14.67;13.67;;;;;;;;5088529;27;46135;-78
2023/09/10 06:49:41;;;;;;;;;15.25;12.00;;;;;;;;5070259;27;45793;-81
2023/09/10 06:52:06;;;;;;;;;17.00;17.00;;;;;;;;5072564;27;45819;-81
2023/09/10 06:54:32;;;;;;;;;13.00;12.00;;;;;;;;5063085;27;46590;-81
2023/09/10 06:57:01;;;;;;;;;14.67;13.00;;;;;;;;5075450;27;46318;-81
2023/09/10 06:59:32;;;;;;;;;15.00;14.67;;;;;;;;5087659;27;45679;-80
2023/09/10 07:02:01;;;;;;;;;17.33;12.67;;;;;;;;5085730;27;45591;-81
2023/09/10 07:04:27;;;;;;;;;10.00;10.00;;;;;;;;5081916;27;46098;-79
2023/09/10 07:06:58;;;;;;;;;10.00;8.67;;;;;;;;5083003;27;45721;-81
2023/09/10 07:09:24;;;;;;;;;13.67;11.33;;;;;;;;5060665;27;45552;-81
2023/09/10 07:11:53;;;;;;;;;16.00;12.67;;;;;;;;5086689;27;45422;-82
2023/09/10 07:14:37;;;;;;;;;16.67;14.00;;;;;;;;5092048;27;45440;-82
2023/09/10 07:17:02;;;;;;;;;14.00;11.00;;;;;;;;5071786;27;46794;-79
2023/09/10 07:19:31;;;;;;;;;16.67;11.67;;;;;;;;5085228;27;45939;-84
2023/09/10 07:21:56;;;;;;;;;14.00;12.33;;;;;;;;5084043;27;45682;-79
2023/09/10 07:24:22;;;;;;;;;14.00;12.33;;;;;;;;5082498;27;46081;-79
2023/09/10 07:26:47;;;;;;;;;13.67;12.33;;;;;;;;5062675;27;46308;-80
2023/09/10 07:29:16;;;;;;;;;12.00;11.00;;;;;;;;5087750;27;45986;-81
2023/09/10 07:31:41;;;;;;;;;12.33;12.33;;;;;;;;5084559;27;45717;-80
2023/09/10 07:34:07;;;;;;;;;12.00;12.00;;;;;;;;5069461;27;46037;-80
2023/09/10 07:36:32;;;;;;;;;15.00;12.67;;;;;;;;5080700;27;45896;-78
2023/09/10 07:38:57;;;;;;;;;16.33;12.33;;;;;;;;5077976;27;46049;-80
2023/09/10 07:41:26;;;;;;;;;11.00;9.00;;;;;;;;5086127;27;45477;-80
2023/09/10 07:43:51;;;;;;;;;8.25;8.00;;;;;;;;5068042;27;45993;-79
2023/09/10 07:46:16;;;;;;;;;14.50;12.75;;;;;;;;5067651;27;47333;-80
2023/09/10 07:48:42;;;;;;;;;22.00;18.00;;;;;;;;5068848;27;45999;-78
2023/09/10 07:51:09;;;;;;;;;10.50;10.50;;;;;;;;5092161;27;46065;-80
2023/09/10 07:53:37;;;;;;;;;15.67;14.67;;;;;;;;5061909;27;46312;-77
2023/09/10 07:56:03;;;;;;;;;12.33;12.33;;;;;;;;5069003;27;45691;-76
2023/09/10 07:58:28;;;;;;;;;11.00;9.33;;;;;;;;5084391;27;46637;-76
2023/09/10 08:00:56;;;;;;;;;12.67;11.33;;;;;;;;5082842;27;46090;-78
2023/09/10 08:03:21;;;;;;;;;10.75;9.25;;;;;;;;5089286;27;45690;-80
2023/09/10 08:05:46;;;;;;;;;28.00;25.67;;;;;;;;5073669;27;47421;-81
2023/09/10 08:08:12;;;;;;;;;19.00;19.00;;;;;;;;5068321;28;45514;-81
2023/09/10 08:10:37;;;;;;;;;10.50;10.50;;;;;;;;5089008;27;45411;-81
2023/09/10 08:13:03;;;;;;;;;8.67;8.33;;;;;;;;5088233;27;45631;-81
2023/09/10 08:15:29;;;;;;;;;13.25;10.25;;;;;;;;5090980;27;45396;-82
2023/09/10 08:17:55;;;;;;;;;13.00;12.67;;;;;;;;5085610;27;45864;-83
2023/09/10 08:20:21;;;;;;;;;12.00;10.00;;;;;;;;5089855;27;45696;-82
2023/09/10 08:23:01;;;;;;;;;10.00;10.00;;;;;;;;5083447;27;45781;-83
2023/09/10 08:25:40;;;;;;;;;10.33;8.67;;;;;;;;5094265;27;45831;-81
2023/09/10 08:31:52;;;;;;;;;15.67;12.33;;;;;;;;5029341;28;45969;-85
2023/09/10 08:34:17;;;;;;;;;11.50;9.50;;;;;;;;5005545;28;45926;-79
2023/09/10 08:36:56;;;;;;;;;9.00;7.25;;;;;;;;5045817;28;45794;-80
2023/09/10 08:39:22;;;;;;;;;10.00;10.00;;;;;;;;5050029;28;46085;-80
2023/09/10 08:42:15;;;;;;;;;8.00;8.00;;;;;;;;5050936;28;45738;-78
2023/09/10 08:45:00;;;;;;;;;12.67;12.67;;;;;;;;5052405;28;45838;-80
2023/09/10 08:47:45;;;;;;;;;12.50;11.50;;;;;;;;5051268;27;45667;-78
2023/09/10 08:50:13;;;;;;;;;9.00;6.25;;;;;;;;5042185;28;45520;-78
2023/09/10 08:52:39;;;;;;;;;11.25;10.00;;;;;;;;5051696;28;45566;-82
2023/09/10 08:55:06;;;;;;;;;12.33;9.67;;;;;;;;5053122;28;45807;-80
2023/09/10 08:57:31;;;;;;;;;13.67;9.00;;;;;;;;5051300;28;45512;-80
2023/09/10 08:59:57;;;;;;;;;12.00;9.50;;;;;;;;5050241;28;45768;-83
2023/09/10 09:02:25;;;;;;;;;9.75;8.50;;;;;;;;5044812;28;46772;-85
2023/09/10 09:04:51;;;;;;;;;11.67;10.33;;;;;;;;5054422;28;45362;-82
2023/09/10 09:07:21;;;;;;;;;10.00;10.00;;;;;;;;5047307;28;45630;-79
2023/09/10 09:09:53;;;;;;;;;11.00;11.00;;;;;;;;5047718;28;45869;-82
2023/09/10 09:12:19;;;;;;;;;10.00;8.00;;;;;;;;5044946;28;45774;-81
2023/09/10 09:14:46;;;;;;;;;10.67;9.00;;;;;;;;5052103;28;45915;-83
2023/09/10 09:17:12;;;;;;;;;10.00;9.00;;;;;;;;5048489;28;46070;-83
2023/09/10 09:19:45;;;;;;;;;13.75;12.75;;;;;;;;5052035;28;45809;-86
2023/09/10 09:22:19;;;;;;;;;11.67;8.33;;;;;;;;5052320;28;45551;-85
2023/09/10 09:24:45;;;;;;;;;11.50;10.00;;;;;;;;5058911;28;45726;-84
2023/09/10 09:27:11;;;;;;;;;7.50;7.50;;;;;;;;5056417;28;45941;-82
2023/09/10 09:29:42;;;;;;;;;8.50;8.50;;;;;;;;5056593;28;45447;-84
2023/09/10 09:32:15;;;;;;;;;11.00;10.00;;;;;;;;5046106;28;45585;-84
2023/09/10 09:34:42;;;;;;;;;9.67;8.33;;;;;;;;5045324;28;46203;-84
2023/09/10 09:37:07;;;;;;;;;11.00;10.00;;;;;;;;5066877;27;46150;-83
2023/09/10 09:39:33;;;;;;;;;11.33;10.33;;;;;;;;5059016;28;46084;-82
2023/09/10 09:41:58;;;;;;;;;8.67;8.67;;;;;;;;5052553;28;45903;-81
2023/09/10 09:44:24;;;;;;;;;10.75;9.25;;;;;;;;5047162;28;46011;-81
2023/09/10 09:46:50;;;;;;;;;10.00;10.00;;;;;;;;5048718;28;46440;-81
2023/09/10 09:49:16;;;;;;;;;12.33;12.00;;;;;;;;5045686;28;45935;-81
2023/09/10 09:51:42;;;;;;;;;12.33;9.00;;;;;;;;5044826;28;45763;-82
2023/09/10 09:54:08;;;;;;;;;8.00;8.00;;;;;;;;5049569;28;45796;-83
2023/09/10 09:56:35;;;;;;;;;10.33;10.33;;;;;;;;5044481;28;45777;-82
2023/09/10 09:59:02;;;;;;;;;9.67;9.67;;;;;;;;5045992;28;45789;-82
2023/09/10 10:01:28;;;;;;;;;11.33;10.67;;;;;;;;5050172;28;45465;-82
2023/09/10 10:03:58;;;;;;;;;12.00;12.00;;;;;;;;5050746;28;45680;-82
2023/09/10 10:06:23;;;;;;;;;11.67;10.67;;;;;;;;5048777;28;46709;-83
2023/09/10 10:08:49;;;;;;;;;10.67;10.67;;;;;;;;5045028;28;45558;-82
2023/09/10 10:11:19;;;;;;;;;11.00;8.33;;;;;;;;5060385;28;45620;-83
2023/09/10 10:13:47;;;;;;;;;9.67;8.67;;;;;;;;5043208;28;46280;-82
2023/09/10 10:16:15;;;;;;;;;11.00;9.00;;;;;;;;5050138;28;46458;-80
2023/09/10 10:18:41;;;;;;;;;10.00;9.00;;;;;;;;5048921;28;45742;-79
2023/09/10 10:21:06;;;;;;;;;10.33;10.00;;;;;;;;5052410;28;45362;-79
2023/09/10 10:23:31;;;;;;;;;11.00;9.00;;;;;;;;5053560;28;45680;-85
2023/09/10 10:26:01;;;;;;;;;10.00;10.00;;;;;;;;5055280;28;45690;-83
2023/09/10 10:28:27;;;;;;;;;10.00;10.00;;;;;;;;5060447;28;45726;-83
2023/09/10 10:30:59;;;;;;;;;10.00;9.33;;;;;;;;5075168;28;45434;-90
2023/09/10 10:33:26;;;;;;;;;12.67;10.00;;;;;;;;5079345;28;45413;-87
2023/09/10 10:36:06;;;;;;;;;14.00;11.67;;;;;;;;5081340;28;46631;-85
2023/09/10 10:38:33;;;;;;;;;12.33;10.33;;;;;;;;5086323;27;45280;-91
2023/09/10 10:41:09;;;;;;;;;11.00;10.33;;;;;;;;5089400;27;45098;-91
2023/09/10 10:43:42;;;;;;;;;13.33;13.33;;;;;;;;5088215;27;44801;-85
2023/09/10 10:46:08;;;;;;;;;11.00;11.00;;;;;;;;5075279;28;46818;-88
2023/09/10 10:48:37;;;;;;;;;11.33;11.33;;;;;;;;5077396;28;45720;-87
2023/09/10 10:51:02;;;;;;;;;15.00;12.00;;;;;;;;5075958;28;45858;-88
2023/09/10 10:53:28;;;;;;;;;10.67;10.67;;;;;;;;5068780;27;45437;-86
2023/09/10 10:55:59;;;;;;;;;11.33;11.33;;;;;;;;5072088;27;46156;-85
2023/09/10 10:58:25;;;;;;;;;12.33;12.33;;;;;;;;5070870;28;46068;-86
2023/09/10 11:00:50;;;;;;;;;13.00;12.00;;;;;;;;5070772;28;45489;-86
2023/09/10 11:03:16;;;;;;;;;11.33;11.33;;;;;;;;5073701;28;45932;-87
2023/09/10 11:05:51;;;;;;;;;11.00;9.33;;;;;;;;5073198;28;47014;-87
2023/09/10 11:08:37;;;;;;;;;14.00;11.00;;;;;;;;5072197;27;44878;-87
2023/09/10 11:11:04;;;;;;;;;15.00;13.67;;;;;;;;5065966;28;45940;-87
2023/09/10 11:13:32;;;;;;;;;14.00;12.33;;;;;;;;5073822;28;45394;-89
2023/09/10 11:16:03;;;;;;;;;11.33;11.33;;;;;;;;5080844;28;46245;-84
2023/09/10 11:18:34;;;;;;;;;14.00;13.00;;;;;;;;5083412;27;45638;-87
2023/09/10 11:21:03;;;;;;;;;14.00;14.00;;;;;;;;5079260;28;45390;-84
2023/09/10 11:23:30;;;;;;;;;12.33;11.00;;;;;;;;5087452;28;45680;-87
2023/09/10 11:26:24;;;;;;;;;11.67;11.67;;;;;;;;5085839;28;47151;-84
2023/09/10 11:28:52;;;;;;;;;13.00;13.00;;;;;;;;5058394;27;45499;-85
2023/09/10 11:31:33;;;;;;;;;15.67;13.33;;;;;;;;5100792;27;45432;-82
2023/09/10 11:34:27;;;;;;;;;11.67;11.33;;;;;;;;5104596;27;45758;-84
2023/09/10 11:37:02;;;;;;;;;13.50;11.50;;;;;;;;5088081;27;45695;-87
2023/09/10 11:39:37;;;;;;;;;14.33;13.33;;;;;;;;5096068;27;45784;-84
2023/09/10 11:42:11;;;;;;;;;13.00;13.00;;;;;;;;5093879;27;46032;-90
2023/09/10 11:44:36;;;;;;;;;13.67;13.67;;;;;;;;5078993;27;46755;-81
2023/09/10 11:47:14;;;;;;;;;16.00;14.00;;;;;;;;5097151;27;45646;-83
2023/09/10 11:49:40;;;;;;;;;15.00;14.00;;;;;;;;5080761;27;45848;-84
2023/09/10 11:52:07;;;;;;;;;13.00;12.33;;;;;;;;5091999;27;45671;-87
2023/09/10 11:54:37;;;;;;;;;18.00;16.00;;;;;;;;5090037;27;45865;-83
2023/09/10 11:57:28;;;;;;;;;18.33;17.33;;;;;;;;5084065;27;46734;-85
2023/09/10 12:00:03;;;;;;;;;12.33;12.33;;;;;;;;5067637;27;45624;-87
2023/09/10 12:02:28;;;;;;;;;14.00;13.00;;;;;;;;5093219;27;45804;-84
2023/09/10 12:04:54;;;;;;;;;15.00;13.00;;;;;;;;5093315;27;45904;-83
2023/09/10 12:07:19;;;;;;;;;13.33;12.33;;;;;;;;5072327;27;47386;-85
2023/09/10 12:09:50;;;;;;;;;15.00;14.00;;;;;;;;5092165;27;45628;-82
2023/09/10 12:12:17;;;;;;;;;14.67;14.33;;;;;;;;5091240;27;45853;-83
2023/09/10 12:14:42;;;;;;;;;15.00;15.00;;;;;;;;5087695;27;45539;-85
2023/09/10 12:17:08;;;;;;;;;17.67;15.00;;;;;;;;5090606;27;45617;-85
2023/09/10 12:19:34;;;;;;;;;15.33;14.00;;;;;;;;5089559;27;46167;-81
2023/09/10 12:22:00;;;;;;;;;13.33;12.00;;;;;;;;5086258;27;45593;-82
2023/09/10 12:24:26;;;;;;;;;15.00;14.00;;;;;;;;5089811;27;45972;-83
2023/09/10 12:26:51;;;;;;;;;14.33;13.67;;;;;;;;5066552;27;47321;-83
2023/09/10 12:29:16;;;;;;;;;14.33;14.33;;;;;;;;5079011;27;45940;-84
2023/09/10 12:31:42;;;;;;;;;53.00;44.33;;;;;;;;5083749;27;45860;-83
2023/09/10 12:34:09;;;;;;;;;13.00;13.00;;;;;;;;5081006;27;45791;-84
2023/09/10 12:36:36;;;;;;;;;21.00;21.00;;;;;;;;5082860;27;45879;-84
2023/09/10 12:39:01;;;;;;;;;13.00;11.33;;;;;;;;5083748;27;45559;-86
2023/09/10 12:41:26;;;;;;;;;16.33;14.33;;;;;;;;5077006;27;45411;-87
2023/09/10 12:43:52;;;;;;;;;17.67;17.67;;;;;;;;5095048;27;45797;-85
2023/09/10 12:46:18;;;;;;;;;23.33;19.33;;;;;;;;5088570;27;45661;-86
2023/09/10 12:48:44;;;;;;;;;15.67;13.00;;;;;;;;5085750;27;45419;-84
2023/09/10 12:51:10;;;;;;;;;16.67;13.33;;;;;;;;5090194;27;45577;-86
2023/09/10 12:53:35;;;;;;;;;17.33;16.00;;;;;;;;5097704;27;45397;-86
2023/09/10 12:56:01;;;;;;;;;28.33;24.00;;;;;;;;5073604;27;46159;-85
2023/09/10 12:58:26;;;;;;;;;13.50;13.00;;;;;;;;5091403;27;46014;-84
2023/09/10 13:00:55;;;;;;;;;12.75;11.75;;;;;;;;5086316;27;45490;-85
2023/09/10 13:03:21;;;;;;;;;14.33;14.33;;;;;;;;5089250;27;45859;-84
2023/09/10 13:05:46;;;;;;;;;16.00;16.00;;;;;;;;5090551;27;45684;-85
2023/09/10 13:08:11;;;;;;;;;13.33;13.33;;;;;;;;5067491;28;46210;-87
2023/09/10 13:10:37;;;;;;;;;17.67;16.33;;;;;;;;5087892;27;45831;-86
2023/09/10 13:13:02;;;;;;;;;13.33;13.33;;;;;;;;5078270;27;45736;-85
2023/09/10 13:15:28;;;;;;;;;14.00;14.00;;;;;;;;5087386;27;45707;-85
2023/09/10 13:17:53;;;;;;;;;16.50;12.50;;;;;;;;5091109;27;45754;-84
2023/09/10 13:20:19;;;;;;;;;17.33;15.33;;;;;;;;5093087;27;45591;-86
2023/09/10 13:22:44;;;;;;;;;15.00;14.00;;;;;;;;5071077;27;45650;-87
2023/09/10 13:25:10;;;;;;;;;14.67;14.67;;;;;;;;5065912;27;46491;-88
2023/09/10 13:27:35;;;;;;;;;14.00;12.33;;;;;;;;5067012;27;45570;-87
2023/09/10 13:30:01;;;;;;;;;16.67;16.67;;;;;;;;5083336;27;45454;-87
2023/09/10 13:32:26;;;;;;;;;11.00;10.67;;;;;;;;5069815;27;45862;-86
2023/09/10 13:34:51;;;;;;;;;15.33;12.00;;;;;;;;5085334;27;45522;-86
2023/09/10 13:37:17;;;;;;;;;10.67;10.67;;;;;;;;5068187;27;45477;-86
2023/09/10 13:39:42;;;;;;;;;10.67;10.00;;;;;;;;5093249;27;44852;-86
2023/09/10 13:42:07;;;;;;;;;15.00;13.00;;;;;;;;5096010;27;45425;-86
2023/09/10 13:44:33;;;;;;;;;11.33;11.33;;;;;;;;5075364;27;46617;-88
2023/09/10 13:46:58;;;;;;;;;10.00;10.00;;;;;;;;5090876;27;45914;-87
2023/09/10 13:49:23;;;;;;;;;10.00;7.33;;;;;;;;5080733;27;45598;-85
2023/09/10 13:51:49;;;;;;;;;12.67;11.00;;;;;;;;5082129;27;45925;-83
2023/09/10 13:54:14;;;;;;;;;11.00;9.67;;;;;;;;5065763;27;47308;-84
2023/09/10 13:56:39;;;;;;;;;11.00;11.00;;;;;;;;5088249;27;45782;-87
2023/09/10 13:59:05;;;;;;;;;13.00;13.00;;;;;;;;5084956;27;45767;-83
2023/09/10 14:01:31;;;;;;;;;11.00;11.00;;;;;;;;5092299;27;45515;-83
2023/09/10 14:03:56;;;;;;;;;13.00;13.00;;;;;;;;5091008;27;45709;-86
2023/09/10 14:06:22;;;;;;;;;8.33;8.00;;;;;;;;5099447;27;45419;-86
2023/09/10 14:08:48;;;;;;;;;11.67;9.67;;;;;;;;5090291;27;45606;-85
2023/09/10 14:11:13;;;;;;;;;12.67;12.00;;;;;;;;5095898;27;45541;-87
2023/09/10 14:13:38;;;;;;;;;12.00;10.00;;;;;;;;5098234;27;46740;-87
2023/09/10 14:16:04;;;;;;;;;10.00;10.00;;;;;;;;5093842;27;45393;-87
2023/09/10 14:18:29;;;;;;;;;11.00;11.00;;;;;;;;5096398;27;45453;-87
2023/09/10 14:20:54;;;;;;;;;12.33;11.00;;;;;;;;5096752;27;45683;-88